Ближний Береговой

Карта отелей и гостиниц, располагающихся рядом с аэропортом Ближний Береговой :

Ближний Береговой Челябинская область 56° 0' 1.3212" N, 60° 48' 31.9212" E
Ближний Береговой Челябинская область 56° 0' 1.3212" N, 60° 48' 31.9212" E
Код аэродрома ИКАО: 
HFG1
Код аэродрома RU: 
ХФГ1
Координаты: 
N56.00037° E060.80887°
Превышение над уровнем моря : 
243
Основная полоса: 
35/17
Курс магнитный: 
351,4/171,4
Длина основной ВПП: 
45
Ширина основной ВПП: 
30
Покрытие основной ВПП: 
Твёрдое (асфальт)
Тип: 
Вертодром
Освещение ВПП: 
Нет
Класс аэродрома: 
Статус: 
Действующий
Принадлежность: 
ГА
Сайт: 
E-mail аэродрома: 
Страна: 
Россия
Регион: 
Челябинская область
Город: 
Дополнительная информация: 
Оператор: нет данных.

Найти трансфер

С помощью этой формы Вы можете найти трансфер из аэропорта Ближний Береговой в город, аэропорт или вокзал:

Карта места

Javascript is required to view this map.

Погода в аэропортах:

Авиационная погода в Москва - Домодедово

Регион: 
Погода METAR: 
UUDD 141730Z 04007MPS 9999 -SHRA SCT005 BKN033CB 18/16 Q0999 R32L/290042 NOSIG
Время наблюдения: 
2020-07-14T17:30:00Z
Температура C: 
18.0
Точка росы: 
16.0
Направление ветра: 
40
Скорость ветра: 
14
Метеорологическая видимость: 
6.21
Явления погоды: 
-SHRA
Условия полета: 
VFR
Аэропорт подробнее: 

Авиационная погода в Челябинске

Регион: 
Погода METAR: 
USCC 141730Z 11003MPS 5000 FU FEW040CB 26/14 Q1017 R09/000060 NOSIG RMK QFE742
Время наблюдения: 
2020-07-14T17:30:00Z
Температура C: 
26.0
Точка росы: 
14.0
Направление ветра: 
110
Скорость ветра: 
6
Метеорологическая видимость: 
3.11
Явления погоды: 
FU
Условия полета: 
MVFR
Аэропорт подробнее: 

Авиационная погода в аэропорту Алыкель

Регион: 
Погода METAR: 
UOOO 141800Z 30005MPS 0300 0250S FG VV002 10/09 Q1008 R19/15//57 NOSIG RMK QFE740/0986
Время наблюдения: 
2020-07-14T18:00:00Z
Температура C: 
10.0
Точка росы: 
9.0
Направление ветра: 
300
Скорость ветра: 
10
Метеорологическая видимость: 
0.19
Явления погоды: 
FG
Условия полета: 
LIFR
Аэропорт подробнее: 

Авиационная погода в аэропорту Новый

Регион: 
Погода METAR: 
UHHH 141730Z VRB01MPS 3600 BR NSC 17/15 Q1004 R23L/090060 NOSIG RMK QBB050 QFE747/0996
Время наблюдения: 
2020-07-14T17:30:00Z
Температура C: 
17.0
Точка росы: 
15.0
Направление ветра: 
0
Скорость ветра: 
2
Метеорологическая видимость: 
2.24
Явления погоды: 
BR
Условия полета: 
IFR
Аэропорт подробнее: